Main page
METAR-TAF:

METAR-TAF

Airports :

Inverness, Scotland

Inverness Airport

latitude: 57-32N, longitude: 004-03W, elevation: 9 m

Current weather observation

The report was made 21 minutes ago, at 02:20 UTC
Wind 6 kt from the Northeast
Temperature 12°C
Humidity 94%
Pressure 1018 hPa
Visibility 10 km or more

METAR: EGPE 240220Z AUTO 05006KT 9999 FEW017/// 12/11 Q1018

Time: 03:41 (02:41 UTC)

Forecast

The report was made 38 minutes ago, at 02:03 UTC
Forecast valid from 24 at 03 UTC to 24 at 12 UTC
Wind 5 kt from the Northeast
Visibility 10 km or more
Scattered clouds at a height of 1200 ft
Temporary
from 24 at 03 UTC to 24 at 05 UTC
Visibility: 5000 m
Broken clouds at a height of 900 ft
mist

TAF: EGPE 240203Z 2403/2412 04005KT 9999 SCT012 TEMPO 2403/2405 5000 BR BKN009

Weather observations and forecasts of more than 4000 airports (METAR and TAF reports).

The available stations are represented by yellow and red dots on the map.

Hover mouse over dot to see the name of the station.

Then click to see weather observations and forecasts.

To change the map : click on the green buttons with a black cross to zoom in, on the green button with a dash to zoom out, or on the green arrows for adjacent maps.


METAR-TAF: